Time;durP1;ratioP1;P1;durP2;ratioP2;P2;SDS_P1;SDS_P2;PMS_P1;PMS_P2;Temp;Humidity;BMP_temperature;BMP_pressure;BME280_temperature;BME280_humidity;BME280_pressure;Samples;Min_cycle;Max_cycle;Signal;HPM_P1;HPM_P2
2022/04/29 00:00:08;;;;;;;17.27;10.70;;;;;;;;;;5021889;28;20116;-58
2022/04/29 00:02:35;;;;;;;16.65;10.90;;;;;;;;;;5022526;28;20037;-59
2022/04/29 00:05:01;;;;;;;21.35;11.93;;;;;;;;;;5028442;28;20578;-57
2022/04/29 00:07:27;;;;;;;17.05;10.82;;;;;;;;;;5019911;28;20029;-57
2022/04/29 00:09:53;;;;;;;20.85;11.43;;;;;;;;;;5025521;28;20028;-58
2022/04/29 00:12:19;;;;;;;19.27;11.55;;;;;;;;;;5023381;28;20053;-58
2022/04/29 00:14:45;;;;;;;16.30;11.55;;;;;;;;;;5020981;28;20057;-58
2022/04/29 00:17:11;;;;;;;24.35;11.82;;;;;;;;;;5019259;28;20036;-59
2022/04/29 00:19:38;;;;;;;19.35;11.77;;;;;;;;;;5024970;28;20535;-57
2022/04/29 00:22:04;;;;;;;23.52;12.50;;;;;;;;;;5016484;28;20432;-57
2022/04/29 00:24:31;;;;;;;19.02;11.88;;;;;;;;;;5024013;28;20072;-57
2022/04/29 00:26:58;;;;;;;21.10;11.73;;;;;;;;;;5022530;28;20025;-57
2022/04/29 00:29:24;;;;;;;18.67;12.00;;;;;;;;;;5023755;28;20029;-58
2022/04/29 00:31:50;;;;;;;22.05;12.15;;;;;;;;;;5023728;28;20030;-59
2022/04/29 00:34:17;;;;;;;18.80;11.75;;;;;;;;;;5021108;28;20463;-57
2022/04/29 00:36:43;;;;;;;18.40;12.15;;;;;;;;;;5022639;28;20108;-57
2022/04/29 00:39:09;;;;;;;20.83;11.73;;;;;;;;;;5023910;28;20033;-58
2022/04/29 00:41:35;;;;;;;16.25;12.23;;;;;;;;;;5016370;28;20095;-57
2022/04/29 00:44:02;;;;;;;16.75;12.13;;;;;;;;;;5019802;28;20025;-58
2022/04/29 00:46:28;;;;;;;14.70;11.60;;;;;;;;;;5021620;28;20026;-57
2022/04/29 00:48:54;;;;;;;23.15;12.40;;;;;;;;;;5023983;28;21224;-58
2022/04/29 00:51:20;;;;;;;20.17;12.70;;;;;;;;;;5018905;28;20083;-58
2022/04/29 00:53:46;;;;;;;18.58;12.32;;;;;;;;;;5023861;28;20026;-57
2022/04/29 00:56:12;;;;;;;21.02;12.32;;;;;;;;;;5018894;28;20022;-57
2022/04/29 00:58:41;;;;;;;17.55;11.73;;;;;;;;;;5017176;28;20444;-59
2022/04/29 01:01:07;;;;;;;17.42;12.63;;;;;;;;;;5024605;28;20090;-57
2022/04/29 01:03:34;;;;;;;17.35;11.90;;;;;;;;;;5021950;28;20025;-57
2022/04/29 01:06:00;;;;;;;17.75;12.68;;;;;;;;;;5021353;28;20029;-58
2022/04/29 01:08:26;;;;;;;19.95;13.05;;;;;;;;;;5024031;28;20025;-57
2022/04/29 01:10:52;;;;;;;18.55;12.75;;;;;;;;;;5023315;28;20592;-58
2022/04/29 01:13:19;;;;;;;18.98;12.13;;;;;;;;;;5022607;28;20091;-58
2022/04/29 01:15:45;;;;;;;19.42;12.70;;;;;;;;;;5016206;28;20113;-57
2022/04/29 01:18:13;;;;;;;19.73;13.57;;;;;;;;;;5012866;28;20109;-57
2022/04/29 01:20:39;;;;;;;22.35;13.65;;;;;;;;;;5022884;28;20029;-57
2022/04/29 01:23:09;;;;;;;20.65;12.70;;;;;;;;;;5018568;28;20025;-57
2022/04/29 01:25:37;;;;;;;19.45;13.13;;;;;;;;;;5021924;28;20039;-57
2022/04/29 01:28:03;;;;;;;19.58;12.60;;;;;;;;;;5017817;28;20565;-57
2022/04/29 01:30:29;;;;;;;19.45;13.23;;;;;;;;;;5023601;28;20045;-57
2022/04/29 01:32:56;;;;;;;18.85;12.73;;;;;;;;;;5022562;28;20037;-57
2022/04/29 01:35:22;;;;;;;19.63;13.77;;;;;;;;;;5022223;28;20036;-57
2022/04/29 01:37:48;;;;;;;21.52;13.63;;;;;;;;;;5018786;28;20389;-58
2022/04/29 01:40:16;;;;;;;19.38;14.02;;;;;;;;;;5024153;28;20022;-57
2022/04/29 01:42:42;;;;;;;21.73;13.38;;;;;;;;;;5022693;28;20447;-58
2022/04/29 01:45:09;;;;;;;22.08;14.65;;;;;;;;;;5022157;28;20376;-57
2022/04/29 01:47:35;;;;;;;18.80;14.25;;;;;;;;;;5022144;28;21012;-57
2022/04/29 01:50:01;;;;;;;20.40;13.93;;;;;;;;;;5021454;28;20025;-57
2022/04/29 01:52:27;;;;;;;21.63;14.27;;;;;;;;;;5019029;28;20385;-57
2022/04/29 01:54:53;;;;;;;21.88;14.45;;;;;;;;;;5021385;28;20033;-57
2022/04/29 01:57:19;;;;;;;19.58;13.98;;;;;;;;;;5019874;28;20112;-56
2022/04/29 01:59:45;;;;;;;21.10;14.52;;;;;;;;;;5019393;28;20538;-56
2022/04/29 02:02:11;;;;;;;20.83;13.63;;;;;;;;;;5022104;28;20034;-58
2022/04/29 02:04:37;;;;;;;21.67;14.20;;;;;;;;;;5019711;28;20028;-58
2022/04/29 02:07:04;;;;;;;24.10;14.68;;;;;;;;;;5020495;28;20021;-57
2022/04/29 02:09:30;;;;;;;22.17;13.80;;;;;;;;;;5023688;28;20661;-57
2022/04/29 02:12:05;;;;;;;21.67;14.38;;;;;;;;;;5023350;28;20030;-57
2022/04/29 02:14:35;;;;;;;21.92;14.45;;;;;;;;;;5021614;28;20032;-58
2022/04/29 02:17:02;;;;;;;23.70;14.32;;;;;;;;;;5016988;28;20044;-58
2022/04/29 02:19:28;;;;;;;20.65;14.18;;;;;;;;;;5020815;28;20029;-57
2022/04/29 02:21:54;;;;;;;23.02;14.90;;;;;;;;;;5016252;28;20164;-56
2022/04/29 02:24:20;;;;;;;22.35;14.02;;;;;;;;;;5020221;28;20036;-57
2022/04/29 02:26:46;;;;;;;22.88;14.55;;;;;;;;;;5019643;28;20203;-56
2022/04/29 02:29:13;;;;;;;23.23;14.65;;;;;;;;;;5021602;28;20670;-57
2022/04/29 02:31:39;;;;;;;20.77;13.63;;;;;;;;;;5025416;28;20032;-58
2022/04/29 02:34:05;;;;;;;23.38;14.23;;;;;;;;;;5023816;28;20612;-57
2022/04/29 02:36:32;;;;;;;22.70;14.98;;;;;;;;;;5019287;28;20033;-58
2022/04/29 02:38:59;;;;;;;25.17;15.05;;;;;;;;;;5025658;28;20104;-58
2022/04/29 02:41:25;;;;;;;21.20;14.73;;;;;;;;;;5024661;28;20272;-58
2022/04/29 02:43:51;;;;;;;20.45;13.90;;;;;;;;;;5022922;28;20044;-58
2022/04/29 02:46:17;;;;;;;23.23;14.00;;;;;;;;;;5025826;28;20473;-56
2022/04/29 02:48:46;;;;;;;22.02;14.15;;;;;;;;;;5026096;28;20269;-58
2022/04/29 02:51:13;;;;;;;27.08;13.20;;;;;;;;;;5022647;28;20021;-57
2022/04/29 02:53:39;;;;;;;22.40;13.02;;;;;;;;;;5026060;28;20437;-57
2022/04/29 02:56:05;;;;;;;23.70;13.50;;;;;;;;;;5023366;28;20034;-58
2022/04/29 02:58:31;;;;;;;24.00;13.63;;;;;;;;;;5022190;28;20456;-58
2022/04/29 03:00:57;;;;;;;23.70;13.52;;;;;;;;;;5024588;28;20104;-58
2022/04/29 03:03:23;;;;;;;25.33;13.40;;;;;;;;;;5021153;28;20036;-59
2022/04/29 03:05:49;;;;;;;21.95;12.98;;;;;;;;;;5024746;28;20032;-57
2022/04/29 03:08:15;;;;;;;24.40;12.40;;;;;;;;;;5024119;28;20022;-57
2022/04/29 03:10:41;;;;;;;23.25;12.98;;;;;;;;;;5026452;28;20100;-58
2022/04/29 03:13:07;;;;;;;24.65;12.55;;;;;;;;;;5023092;28;20298;-57
2022/04/29 03:15:34;;;;;;;23.38;12.13;;;;;;;;;;5023970;28;20037;-57
2022/04/29 03:18:20;;;;;;;20.33;12.38;;;;;;;;;;5018090;28;20068;-57
2022/04/29 03:20:47;;;;;;;22.63;13.45;;;;;;;;;;5025270;28;20539;-58
2022/04/29 03:23:14;;;;;;;26.73;13.15;;;;;;;;;;5022266;28;20022;-57
2022/04/29 03:25:40;;;;;;;23.63;13.10;;;;;;;;;;5025114;28;20864;-57
2022/04/29 03:28:06;;;;;;;20.48;12.32;;;;;;;;;;5023595;28;20657;-57
2022/04/29 03:30:33;;;;;;;21.38;11.90;;;;;;;;;;5022793;28;20650;-58
2022/04/29 03:33:00;;;;;;;19.02;12.32;;;;;;;;;;5024874;28;20117;-57
2022/04/29 03:35:26;;;;;;;21.15;11.80;;;;;;;;;;5025345;28;20045;-57
2022/04/29 03:37:53;;;;;;;21.35;11.95;;;;;;;;;;5020048;28;20033;-57
2022/04/29 03:40:22;;;;;;;23.40;12.60;;;;;;;;;;5024999;28;20596;-55
2022/04/29 03:42:49;;;;;;;17.92;11.25;;;;;;;;;;5017862;28;20667;-57
2022/04/29 03:45:15;;;;;;;20.30;12.48;;;;;;;;;;5024024;28;20013;-57
2022/04/29 03:47:42;;;;;;;24.27;12.07;;;;;;;;;;5022990;28;20128;-57
2022/04/29 03:50:08;;;;;;;18.73;12.15;;;;;;;;;;5024579;28;20095;-57
2022/04/29 03:52:34;;;;;;;19.60;10.85;;;;;;;;;;5024408;28;20040;-57
2022/04/29 03:55:00;;;;;;;19.52;10.55;;;;;;;;;;5022730;28;20100;-58
2022/04/29 03:57:26;;;;;;;21.27;11.38;;;;;;;;;;5022436;28;20617;-58
2022/04/29 03:59:52;;;;;;;19.05;11.35;;;;;;;;;;5025354;28;20466;-57
2022/04/29 04:02:18;;;;;;;20.25;10.93;;;;;;;;;;5021923;28;20064;-57
2022/04/29 04:04:45;;;;;;;21.15;12.07;;;;;;;;;;5024009;28;20427;-58
2022/04/29 04:07:11;;;;;;;18.83;10.65;;;;;;;;;;5024208;28;20048;-57
2022/04/29 04:09:39;;;;;;;25.98;11.85;;;;;;;;;;5024872;28;20033;-57
2022/04/29 04:12:05;;;;;;;22.70;11.50;;;;;;;;;;5020186;28;20489;-58
2022/04/29 04:14:31;;;;;;;18.67;10.82;;;;;;;;;;5022611;28;20538;-58
2022/04/29 04:16:58;;;;;;;18.80;11.40;;;;;;;;;;5021384;28;20445;-58
2022/04/29 04:19:24;;;;;;;17.27;10.98;;;;;;;;;;5012479;28;20386;-58
2022/04/29 04:21:50;;;;;;;20.73;11.20;;;;;;;;;;5022042;28;20025;-57
2022/04/29 04:24:16;;;;;;;19.27;11.10;;;;;;;;;;5017276;28;20385;-58
2022/04/29 04:26:42;;;;;;;18.63;10.93;;;;;;;;;;5021596;28;20029;-57
2022/04/29 04:29:07;;;;;;;20.50;11.30;;;;;;;;;;5024051;28;20034;-58
2022/04/29 04:31:33;;;;;;;15.32;10.07;;;;;;;;;;5024059;28;20068;-58
2022/04/29 04:34:49;;;;;;;19.95;10.90;;;;;;;;;;5022996;28;20028;-57
2022/04/29 04:36:45;;;;;;;16.90;10.30;;;;;;;;;;5020963;28;20038;-58
2022/04/29 04:39:12;;;;;;;22.60;10.45;;;;;;;;;;5022819;28;20032;-56
2022/04/29 04:41:38;;;;;;;20.90;10.50;;;;;;;;;;5023150;28;20151;-58
2022/04/29 04:44:04;;;;;;;21.48;10.18;;;;;;;;;;5024381;28;20036;-59
2022/04/29 04:46:30;;;;;;;18.98;10.52;;;;;;;;;;5023890;28;20030;-58
2022/04/29 04:48:56;;;;;;;20.98;10.90;;;;;;;;;;5024012;28;20025;-57
2022/04/29 04:51:22;;;;;;;20.80;10.43;;;;;;;;;;5023862;28;20036;-59
2022/04/29 04:53:48;;;;;;;22.83;10.73;;;;;;;;;;5023887;28;20026;-58
2022/04/29 04:56:15;;;;;;;19.38;10.75;;;;;;;;;;5024211;28;20041;-57
2022/04/29 04:58:42;;;;;;;23.27;10.70;;;;;;;;;;5021033;28;20053;-56
2022/04/29 05:01:08;;;;;;;20.55;10.45;;;;;;;;;;5022283;28;20030;-58
2022/04/29 05:03:33;;;;;;;16.23;10.63;;;;;;;;;;5023222;28;20056;-56
2022/04/29 05:05:59;;;;;;;16.20;10.40;;;;;;;;;;5022052;28;20144;-57
2022/04/29 05:08:25;;;;;;;20.95;10.30;;;;;;;;;;5022017;28;20034;-58
2022/04/29 05:10:51;;;;;;;17.95;10.57;;;;;;;;;;5022471;28;20539;-56
2022/04/29 05:13:17;;;;;;;21.83;10.90;;;;;;;;;;5020382;28;20037;-57
2022/04/29 05:15:43;;;;;;;21.42;10.63;;;;;;;;;;5016364;28;20040;-57
2022/04/29 05:18:10;;;;;;;19.80;10.65;;;;;;;;;;5015446;28;20060;-57
2022/04/29 05:20:36;;;;;;;17.75;10.32;;;;;;;;;;5021656;28;20548;-57
2022/04/29 05:23:02;;;;;;;25.13;11.70;;;;;;;;;;5021743;28;20030;-57
2022/04/29 05:25:28;;;;;;;20.88;10.32;;;;;;;;;;5023242;28;20030;-57
2022/04/29 05:27:54;;;;;;;20.33;10.60;;;;;;;;;;5020627;28;20455;-58
2022/04/29 05:30:20;;;;;;;22.67;10.75;;;;;;;;;;5020451;28;20148;-59
2022/04/29 05:32:46;;;;;;;21.20;11.20;;;;;;;;;;5024387;28;20025;-58
2022/04/29 05:35:13;;;;;;;20.77;10.75;;;;;;;;;;5019868;28;20014;-57
2022/04/29 05:37:40;;;;;;;19.45;10.82;;;;;;;;;;5022622;28;20036;-59
2022/04/29 05:42:51;;;;;;;22.15;11.20;;;;;;;;;;5024246;28;20499;-57
2022/04/29 05:45:17;;;;;;;23.05;10.50;;;;;;;;;;5023019;28;20026;-57
2022/04/29 05:47:43;;;;;;;21.63;11.13;;;;;;;;;;5021637;28;20032;-58
2022/04/29 05:50:09;;;;;;;24.33;11.35;;;;;;;;;;5020598;28;20017;-59
2022/04/29 05:52:35;;;;;;;25.05;11.55;;;;;;;;;;5021457;28;20022;-59
2022/04/29 05:55:01;;;;;;;22.70;10.93;;;;;;;;;;5023078;28;20461;-57
2022/04/29 05:57:27;;;;;;;23.92;11.07;;;;;;;;;;5017066;28;20029;-57
2022/04/29 05:59:53;;;;;;;24.02;11.55;;;;;;;;;;5019921;28;20028;-58
2022/04/29 06:02:21;;;;;;;26.77;12.15;;;;;;;;;;5017531;28;20068;-58
2022/04/29 06:04:47;;;;;;;24.58;12.20;;;;;;;;;;5022304;28;20022;-57
2022/04/29 06:07:13;;;;;;;22.08;12.48;;;;;;;;;;5024429;28;20499;-59
2022/04/29 06:09:39;;;;;;;27.27;12.63;;;;;;;;;;5025789;28;20163;-59
2022/04/29 06:12:05;;;;;;;23.67;12.77;;;;;;;;;;5025137;28;20017;-59
2022/04/29 06:14:31;;;;;;;18.33;11.05;;;;;;;;;;5026362;28;20131;-59
2022/04/29 06:16:57;;;;;;;22.92;11.90;;;;;;;;;;5022893;28;20025;-58
2022/04/29 06:19:23;;;;;;;25.35;12.35;;;;;;;;;;5020894;28;20034;-58
2022/04/29 06:21:49;;;;;;;25.30;12.88;;;;;;;;;;5019963;28;20105;-59
2022/04/29 06:24:15;;;;;;;22.30;12.48;;;;;;;;;;5023821;28;20148;-58
2022/04/29 06:26:41;;;;;;;23.70;11.80;;;;;;;;;;5024061;28;20041;-59
2022/04/29 06:29:08;;;;;;;24.33;12.45;;;;;;;;;;5021861;28;20079;-59
2022/04/29 06:31:34;;;;;;;23.17;12.00;;;;;;;;;;5023726;28;20035;-59
2022/04/29 06:34:01;;;;;;;18.10;11.77;;;;;;;;;;5023316;28;20392;-58
2022/04/29 06:36:27;;;;;;;27.48;12.55;;;;;;;;;;5020987;28;20030;-59
2022/04/29 06:38:53;;;;;;;31.83;13.20;;;;;;;;;;5025593;28;20031;-58
2022/04/29 06:41:19;;;;;;;22.65;12.27;;;;;;;;;;5023364;28;20034;-58
2022/04/29 06:43:45;;;;;;;28.05;12.85;;;;;;;;;;5023692;28;20374;-58
2022/04/29 06:46:11;;;;;;;23.85;12.25;;;;;;;;;;5026122;28;20040;-58
2022/04/29 06:48:38;;;;;;;34.50;13.68;;;;;;;;;;5025192;28;20036;-59
2022/04/29 06:51:04;;;;;;;22.98;12.57;;;;;;;;;;5023670;28;20491;-58
2022/04/29 06:53:30;;;;;;;27.75;12.77;;;;;;;;;;5021476;28;20036;-59
2022/04/29 06:55:56;;;;;;;25.85;13.68;;;;;;;;;;5022344;28;20041;-59
2022/04/29 06:58:22;;;;;;;26.60;12.55;;;;;;;;;;5022669;28;20072;-58
2022/04/29 07:00:48;;;;;;;28.02;12.95;;;;;;;;;;5021487;28;20025;-59
2022/04/29 07:03:14;;;;;;;27.55;13.32;;;;;;;;;;5017858;28;20029;-58
2022/04/29 07:05:41;;;;;;;35.22;14.23;;;;;;;;;;5022084;28;20161;-59
2022/04/29 07:08:07;;;;;;;26.70;13.70;;;;;;;;;;5024915;28;20030;-59
2022/04/29 07:10:33;;;;;;;28.75;12.50;;;;;;;;;;5026713;28;20465;-58
2022/04/29 07:13:03;;;;;;;27.08;13.15;;;;;;;;;;5023618;28;20014;-58
2022/04/29 07:15:29;;;;;;;22.67;13.48;;;;;;;;;;5018886;28;20049;-59
2022/04/29 07:17:55;;;;;;;20.75;12.90;;;;;;;;;;5020633;28;20092;-58
2022/04/29 07:20:21;;;;;;;29.65;13.38;;;;;;;;;;5016828;28;20033;-58
2022/04/29 07:22:47;;;;;;;30.42;13.23;;;;;;;;;;5024480;28;20071;-58
2022/04/29 07:25:14;;;;;;;32.63;13.70;;;;;;;;;;5020809;28;20028;-59
2022/04/29 07:27:40;;;;;;;24.48;13.23;;;;;;;;;;5022647;28;20052;-58
2022/04/29 07:30:08;;;;;;;26.08;13.23;;;;;;;;;;5021999;28;20692;-59
2022/04/29 07:32:34;;;;;;;26.58;12.48;;;;;;;;;;5015639;28;20052;-59
2022/04/29 07:43:14;;;;;;;23.75;13.05;;;;;;;;;;5019791;28;20406;-58
2022/04/29 07:45:42;;;;;;;25.40;13.65;;;;;;;;;;5023856;28;20026;-58
2022/04/29 07:48:08;;;;;;;29.95;13.90;;;;;;;;;;5023359;28;20377;-59
2022/04/29 07:50:35;;;;;;;30.05;13.35;;;;;;;;;;5024594;28;20025;-58
2022/04/29 07:53:01;;;;;;;33.85;14.18;;;;;;;;;;5020327;28;20026;-58
2022/04/29 07:55:27;;;;;;;27.02;13.80;;;;;;;;;;5018791;28;20538;-58
2022/04/29 07:57:54;;;;;;;22.10;14.10;;;;;;;;;;5018242;28;20048;-59
2022/04/29 08:00:20;;;;;;;32.97;14.55;;;;;;;;;;5020069;28;20033;-58
2022/04/29 08:02:46;;;;;;;36.35;15.35;;;;;;;;;;5023279;28;20079;-58
2022/04/29 08:05:12;;;;;;;28.50;14.15;;;;;;;;;;5013387;28;20477;-60
2022/04/29 08:07:38;;;;;;;27.90;14.15;;;;;;;;;;5017275;28;20040;-58
2022/04/29 08:10:04;;;;;;;30.45;14.52;;;;;;;;;;5018415;28;20025;-58
2022/04/29 08:12:30;;;;;;;28.30;13.85;;;;;;;;;;5015662;28;20111;-58
2022/04/29 08:14:56;;;;;;;28.60;15.15;;;;;;;;;;5019719;28;20037;-59
2022/04/29 08:17:25;;;;;;;29.23;14.95;;;;;;;;;;5012838;28;20071;-58
2022/04/29 08:19:51;;;;;;;31.23;14.85;;;;;;;;;;5017522;28;21462;-59
2022/04/29 08:22:17;;;;;;;25.13;13.75;;;;;;;;;;5020944;28;20543;-59
2022/04/29 08:24:44;;;;;;;33.40;13.70;;;;;;;;;;5025688;28;20037;-58
2022/04/29 08:27:10;;;;;;;24.13;14.15;;;;;;;;;;5021450;28;20037;-58
2022/04/29 08:29:36;;;;;;;25.15;13.27;;;;;;;;;;5020353;28;20119;-58
2022/04/29 08:32:04;;;;;;;23.45;13.60;;;;;;;;;;5023306;28;20037;-58
2022/04/29 08:34:30;;;;;;;25.00;13.60;;;;;;;;;;5020684;28;20381;-59
2022/04/29 08:36:56;;;;;;;27.73;13.65;;;;;;;;;;5021533;28;20033;-59
2022/04/29 08:39:22;;;;;;;23.95;13.48;;;;;;;;;;5019404;28;20032;-59
2022/04/29 08:41:50;;;;;;;27.33;13.88;;;;;;;;;;5018252;28;20112;-60
2022/04/29 08:44:19;;;;;;;26.55;13.45;;;;;;;;;;5019053;28;20037;-59
2022/04/29 08:46:45;;;;;;;25.02;13.32;;;;;;;;;;5015837;28;20109;-59
2022/04/29 08:49:11;;;;;;;28.27;13.40;;;;;;;;;;5025338;28;20029;-58
2022/04/29 08:51:41;;;;;;;25.50;13.45;;;;;;;;;;5021803;28;20029;-58
2022/04/29 08:54:07;;;;;;;31.88;13.57;;;;;;;;;;5021607;28;20040;-59
2022/04/29 08:59:21;;;;;;;23.50;13.35;;;;;;;;;;5023309;28;20099;-59
2022/04/29 09:01:47;;;;;;;27.25;13.32;;;;;;;;;;5020801;28;20033;-58
2022/04/29 09:04:13;;;;;;;29.48;13.55;;;;;;;;;;5016932;28;20037;-58
2022/04/29 09:06:51;;;;;;;24.20;13.68;;;;;;;;;;5023869;28;20078;-58
2022/04/29 09:09:21;;;;;;;24.83;12.60;;;;;;;;;;5022502;28;20060;-58
2022/04/29 09:11:47;;;;;;;27.13;13.85;;;;;;;;;;5020221;28;20041;-59
2022/04/29 09:14:23;;;;;;;27.73;13.63;;;;;;;;;;5017070;28;20033;-59
2022/04/29 09:16:49;;;;;;;28.27;13.90;;;;;;;;;;5014764;28;20036;-58
2022/04/29 09:19:31;;;;;;;26.52;13.73;;;;;;;;;;5019937;28;20802;-58
2022/04/29 09:22:07;;;;;;;28.25;14.05;;;;;;;;;;5015893;28;20030;-58
2022/04/29 09:24:34;;;;;;;23.60;14.15;;;;;;;;;;5020274;28;20092;-58
2022/04/29 09:27:01;;;;;;;25.45;13.57;;;;;;;;;;5018977;28;20029;-59
2022/04/29 09:29:30;;;;;;;30.83;13.40;;;;;;;;;;5021277;28;20104;-59
2022/04/29 09:31:58;;;;;;;29.48;13.73;;;;;;;;;;5016693;28;20504;-59
2022/04/29 09:34:24;;;;;;;23.83;13.60;;;;;;;;;;5018360;28;20509;-58
2022/04/29 09:36:51;;;;;;;25.73;13.02;;;;;;;;;;5018681;28;20026;-59
2022/04/29 09:39:34;;;;;;;24.58;13.57;;;;;;;;;;5019690;28;20046;-60
2022/04/29 09:42:01;;;;;;;30.60;14.57;;;;;;;;;;5023591;28;20040;-58
2022/04/29 09:44:30;;;;;;;26.92;14.52;;;;;;;;;;5026608;28;20037;-59
2022/04/29 09:46:57;;;;;;;26.65;13.65;;;;;;;;;;5025188;28;20442;-60
2022/04/29 09:49:29;;;;;;;25.55;13.88;;;;;;;;;;5020845;28;20033;-58
2022/04/29 09:51:56;;;;;;;28.07;13.63;;;;;;;;;;5025154;28;21320;-60
2022/04/29 09:54:26;;;;;;;28.70;13.75;;;;;;;;;;5026208;28;20041;-59
2022/04/29 09:57:04;;;;;;;23.75;13.88;;;;;;;;;;5022824;28;20166;-59
2022/04/29 09:59:36;;;;;;;28.75;13.35;;;;;;;;;;5035827;28;20026;-58
2022/04/29 10:02:03;;;;;;;27.08;13.50;;;;;;;;;;5022596;28;20381;-60
2022/04/29 10:04:31;;;;;;;24.13;14.13;;;;;;;;;;5023097;28;20045;-59
2022/04/29 10:06:57;;;;;;;24.73;14.43;;;;;;;;;;5022672;28;20086;-59
2022/04/29 10:09:26;;;;;;;25.35;12.82;;;;;;;;;;5025523;28;20476;-59
2022/04/29 10:11:52;;;;;;;28.20;13.45;;;;;;;;;;5023519;28;20137;-58
2022/04/29 10:14:21;;;;;;;29.38;13.80;;;;;;;;;;5026800;28;20025;-59
2022/04/29 10:21:15;;;;;;;22.25;13.05;;;;;;;;;;5021017;28;20034;-58
2022/04/29 10:22:23;;;;;;;26.83;11.98;;;;;;;;;;5023125;28;20048;-59
2022/04/29 10:24:50;;;;;;;23.15;11.88;;;;;;;;;;5020055;28;20053;-60
2022/04/29 10:27:16;;;;;;;27.10;12.02;;;;;;;;;;5019603;28;20030;-58
2022/04/29 10:29:42;;;;;;;23.20;11.50;;;;;;;;;;5025289;28;20033;-59
2022/04/29 10:32:09;;;;;;;24.48;12.23;;;;;;;;;;5018555;28;20076;-58
2022/04/29 10:34:35;;;;;;;21.35;10.57;;;;;;;;;;5024746;28;20025;-58
2022/04/29 10:37:02;;;;;;;19.48;11.00;;;;;;;;;;5018479;28;20029;-58
2022/04/29 10:39:28;;;;;;;18.55;10.07;;;;;;;;;;5019488;28;20095;-59
2022/04/29 10:41:58;;;;;;;17.58;10.55;;;;;;;;;;5020741;28;20579;-59
2022/04/29 10:44:24;;;;;;;24.92;10.50;;;;;;;;;;5020739;28;20033;-60
2022/04/29 10:46:50;;;;;;;25.02;11.20;;;;;;;;;;5021204;28;20064;-59
2022/04/29 10:49:20;;;;;;;22.73;10.65;;;;;;;;;;5019669;28;20045;-60
2022/04/29 10:51:49;;;;;;;17.98;9.82;;;;;;;;;;5024256;28;20092;-59
2022/04/29 10:54:15;;;;;;;21.55;9.57;;;;;;;;;;5022185;28;20113;-59
2022/04/29 10:56:41;;;;;;;21.73;9.93;;;;;;;;;;5024323;28;20021;-59
2022/04/29 10:59:07;;;;;;;20.33;9.88;;;;;;;;;;5023390;28;20559;-60
2022/04/29 11:01:34;;;;;;;19.35;9.32;;;;;;;;;;5024256;28;20484;-59
2022/04/29 11:04:00;;;;;;;18.48;9.40;;;;;;;;;;5024434;28;20394;-59
2022/04/29 11:06:46;;;;;;;18.27;9.88;;;;;;;;;;5001803;28;20034;-59
2022/04/29 11:09:28;;;;;;;23.80;9.15;;;;;;;;;;5025061;28;20017;-59
2022/04/29 11:11:56;;;;;;;16.73;9.55;;;;;;;;;;5016133;28;20084;-58
2022/04/29 11:14:22;;;;;;;22.05;9.23;;;;;;;;;;5023562;28;20420;-60
2022/04/29 11:16:56;;;;;;;20.42;10.07;;;;;;;;;;5025578;28;20055;-59
2022/04/29 11:19:23;;;;;;;25.15;13.23;;;;;;;;;;5021489;28;20038;-59
2022/04/29 11:24:48;;;;;;;18.40;9.43;;;;;;;;;;5020841;28;20111;-59
2022/04/29 11:27:14;;;;;;;22.15;9.43;;;;;;;;;;5019897;28;20036;-60
2022/04/29 11:29:44;;;;;;;21.75;9.98;;;;;;;;;;5024101;28;20033;-59
2022/04/29 11:32:10;;;;;;;19.48;8.65;;;;;;;;;;5020111;28;20160;-59
2022/04/29 11:34:51;;;;;;;18.40;8.40;;;;;;;;;;5021320;28;20045;-59
2022/04/29 11:37:22;;;;;;;19.15;8.35;;;;;;;;;;5021569;28;20029;-59
2022/04/29 11:39:48;;;;;;;16.20;9.05;;;;;;;;;;5023343;28;20068;-58
2022/04/29 11:42:17;;;;;;;24.15;9.18;;;;;;;;;;5025529;28;20484;-60
2022/04/29 11:44:45;;;;;;;20.70;9.25;;;;;;;;;;5022294;28;20703;-59
2022/04/29 11:47:11;;;;;;;19.75;8.85;;;;;;;;;;5018353;28;20135;-59
2022/04/29 11:49:37;;;;;;;21.17;9.25;;;;;;;;;;5021019;28;20037;-59
2022/04/29 11:52:22;;;;;;;23.30;9.48;;;;;;;;;;5021348;28;20048;-60
2022/04/29 11:55:08;;;;;;;20.23;9.52;;;;;;;;;;5015301;28;20033;-59
2022/04/29 11:57:42;;;;;;;18.55;9.68;;;;;;;;;;5020091;28;20099;-60
2022/04/29 12:00:09;;;;;;;20.30;9.13;;;;;;;;;;5022261;28;20022;-60
2022/04/29 12:02:35;;;;;;;14.77;9.27;;;;;;;;;;5024279;28;20143;-59
2022/04/29 12:05:06;;;;;;;22.02;8.88;;;;;;;;;;5024358;28;20029;-59
2022/04/29 12:07:42;;;;;;;17.58;9.38;;;;;;;;;;5018670;28;20029;-59
2022/04/29 12:10:14;;;;;;;27.55;10.30;;;;;;;;;;5020118;28;20065;-60
2022/04/29 12:12:41;;;;;;;21.63;9.32;;;;;;;;;;5019742;28;20068;-59
2022/04/29 12:15:09;;;;;;;23.48;9.32;;;;;;;;;;5017703;28;20316;-59
2022/04/29 12:17:36;;;;;;;17.67;8.50;;;;;;;;;;5018751;28;20508;-60
2022/04/29 12:20:03;;;;;;;18.85;9.00;;;;;;;;;;5018756;28;20044;-59
2022/04/29 12:22:41;;;;;;;12.52;9.13;;;;;;;;;;5023038;28;20116;-60
2022/04/29 12:25:19;;;;;;;19.15;9.25;;;;;;;;;;5022407;28;20053;-60
2022/04/29 12:27:45;;;;;;;18.33;8.80;;;;;;;;;;5021060;28;20061;-60
2022/04/29 12:36:26;;;;;;;18.70;9.57;;;;;;;;;;5016406;28;20075;-59
2022/04/29 12:38:53;;;;;;;21.52;9.07;;;;;;;;;;5020361;28;20144;-60
2022/04/29 12:41:27;;;;;;;18.67;10.27;;;;;;;;;;5022098;28;20422;-60
2022/04/29 12:43:53;;;;;;;22.80;10.10;;;;;;;;;;5018134;28;20021;-59
2022/04/29 12:46:20;;;;;;;14.60;9.77;;;;;;;;;;5028381;28;20061;-59
2022/04/29 12:48:47;;;;;;;18.25;9.80;;;;;;;;;;5016302;28;20034;-59
2022/04/29 12:51:32;;;;;;;18.75;10.25;;;;;;;;;;5013207;28;20022;-59
2022/04/29 12:54:02;;;;;;;18.52;9.82;;;;;;;;;;5019292;28;20026;-59
2022/04/29 12:56:32;;;;;;;20.88;10.50;;;;;;;;;;5020888;28;20061;-60
2022/04/29 12:58:59;;;;;;;16.85;10.20;;;;;;;;;;5023261;28;20104;-60
2022/04/29 13:01:25;;;;;;;18.02;9.88;;;;;;;;;;5022347;28;20396;-60
2022/04/29 13:03:55;;;;;;;19.63;10.68;;;;;;;;;;5019715;28;20033;-59
2022/04/29 13:06:25;;;;;;;19.02;10.13;;;;;;;;;;5020075;28;20096;-59
2022/04/29 13:08:52;;;;;;;16.83;10.50;;;;;;;;;;5017814;28;20083;-59
2022/04/29 13:11:18;;;;;;;21.50;10.25;;;;;;;;;;5021433;28;20034;-60
2022/04/29 13:13:44;;;;;;;22.42;10.20;;;;;;;;;;5018693;28;20033;-60
2022/04/29 13:16:10;;;;;;;16.10;9.80;;;;;;;;;;5019838;28;20483;-59
2022/04/29 13:18:36;;;;;;;23.33;10.02;;;;;;;;;;5013141;28;20496;-59
2022/04/29 13:21:06;;;;;;;20.58;9.98;;;;;;;;;;5021541;28;20088;-59
2022/04/29 13:23:34;;;;;;;17.73;10.13;;;;;;;;;;5017868;28;20385;-60
2022/04/29 13:26:00;;;;;;;24.55;11.07;;;;;;;;;;5018790;28;20582;-60
2022/04/29 13:28:26;;;;;;;17.15;9.82;;;;;;;;;;5011302;28;20022;-59
2022/04/29 13:30:52;;;;;;;21.40;10.70;;;;;;;;;;5016509;28;20033;-59
2022/04/29 13:33:18;;;;;;;12.90;8.75;;;;;;;;;;5022433;28;20033;-60
2022/04/29 13:35:45;;;;;;;16.92;10.30;;;;;;;;;;5015091;28;20056;-59
2022/04/29 13:38:11;;;;;;;16.70;10.05;;;;;;;;;;5016021;28;20087;-60
2022/04/29 13:40:37;;;;;;;14.95;9.48;;;;;;;;;;5018110;28;20032;-58
2022/04/29 13:43:04;;;;;;;16.30;9.65;;;;;;;;;;5018399;28;20022;-59
2022/04/29 13:45:30;;;;;;;18.55;9.13;;;;;;;;;;5016862;28;20102;-60
2022/04/29 13:47:56;;;;;;;18.42;8.85;;;;;;;;;;5019636;28;20021;-58
2022/04/29 13:50:22;;;;;;;17.23;8.18;;;;;;;;;;5016772;28;20116;-59
2022/04/29 13:55:33;;;;;;;17.33;8.93;;;;;;;;;;5021492;28;20048;-59
2022/04/29 13:57:59;;;;;;;17.38;8.32;;;;;;;;;;5022144;28;20030;-59
2022/04/29 14:00:25;;;;;;;13.30;8.35;;;;;;;;;;5019050;28;20107;-60
2022/04/29 14:02:51;;;;;;;16.38;8.20;;;;;;;;;;5018677;28;20029;-59
2022/04/29 14:05:17;;;;;;;13.40;8.18;;;;;;;;;;5015744;28;20056;-59
2022/04/29 14:07:43;;;;;;;19.23;8.55;;;;;;;;;;5014997;28;20022;-59
2022/04/29 14:10:10;;;;;;;16.85;7.95;;;;;;;;;;5015765;28;20536;-60
2022/04/29 14:12:36;;;;;;;21.13;8.48;;;;;;;;;;5012228;28;20044;-60
2022/04/29 14:15:05;;;;;;;14.10;8.50;;;;;;;;;;5013041;28;20366;-59
2022/04/29 14:17:31;;;;;;;12.63;8.38;;;;;;;;;;5011952;28;20116;-60
2022/04/29 14:19:57;;;;;;;15.25;8.57;;;;;;;;;;5017517;28;20030;-60
2022/04/29 14:22:23;;;;;;;15.35;8.63;;;;;;;;;;5018929;28;20080;-59
2022/04/29 14:24:49;;;;;;;16.25;9.05;;;;;;;;;;5021781;28;20037;-60
2022/04/29 14:27:15;;;;;;;17.88;8.80;;;;;;;;;;5020730;28;20121;-59
2022/04/29 14:29:42;;;;;;;15.77;8.90;;;;;;;;;;5026056;28;20034;-59
2022/04/29 14:32:13;;;;;;;16.08;9.48;;;;;;;;;;5021722;28;20034;-59
2022/04/29 14:34:42;;;;;;;17.67;9.70;;;;;;;;;;5021418;28;20029;-59
2022/04/29 14:37:08;;;;;;;14.00;9.00;;;;;;;;;;5020265;28;20113;-59
2022/04/29 14:39:35;;;;;;;14.48;9.48;;;;;;;;;;5018721;28;20116;-60
2022/04/29 14:42:01;;;;;;;16.02;9.38;;;;;;;;;;5020160;28;20029;-59
2022/04/29 14:44:30;;;;;;;16.48;9.43;;;;;;;;;;5023552;28;20237;-59
2022/04/29 14:46:56;;;;;;;16.95;9.00;;;;;;;;;;5020262;28;20684;-59